Time;durP1;ratioP1;P1;durP2;ratioP2;P2;SDS_P1;SDS_P2;PMS_P1;PMS_P2;Temp;Humidity;BMP_temperature;BMP_pressure;BME280_temperature;BME280_humidity;BME280_pressure;Samples;Min_cycle;Max_cycle;Signal;HPM_P1;HPM_P2
2022/11/08 00:01:30;;;;;;;7.00;6.77;;;10.60;99.90;;;;;;4881274;29;20483;-80
2022/11/08 00:03:08;;;;;;;8.07;7.17;;;11.00;99.90;;;;;;4879701;29;20570;-80
2022/11/08 00:13:58;;;;;;;7.70;7.20;;;10.90;89.90;;;;;;4878193;29;20464;-80
2022/11/08 00:16:26;;;;;;;7.57;7.20;;;10.90;55.70;;;;;;4877068;29;20472;-80
2022/11/08 00:18:55;;;;;;;7.57;7.17;;;10.80;61.70;;;;;;4876553;29;20492;-80
2022/11/08 00:21:23;;;;;;;7.60;7.20;;;10.70;53.40;;;;;;4879720;29;20589;-81
2022/11/08 00:23:51;;;;;;;6.73;6.50;;;10.60;99.00;;;;;;4878540;29;20464;-80
2022/11/08 00:26:20;;;;;;;7.33;6.80;;;10.50;99.90;;;;;;4880088;29;20579;-81
2022/11/08 00:28:48;;;;;;;6.90;6.60;;;10.50;99.90;;;;;;4878540;29;20951;-81
2022/11/08 00:31:16;;;;;;;7.30;6.80;;;10.50;99.90;;;;;;4879710;29;20529;-81
2022/11/08 00:33:44;;;;;;;6.80;6.30;;;10.50;99.90;;;;;;4882499;29;20541;-79
2022/11/08 00:36:14;;;;;;;6.70;6.43;;;10.40;99.90;;;;;;4885319;29;20513;-80
2022/11/08 00:38:42;;;;;;;6.90;6.50;;;10.40;99.90;;;;;;4879865;29;20471;-80
2022/11/08 00:41:10;;;;;;;6.60;6.20;;;10.50;99.90;;;;;;4886829;29;20642;-79
2022/11/08 00:43:40;;;;;;;6.70;6.40;;;10.40;99.90;;;;;;4887332;29;20470;-79
2022/11/08 00:46:08;;;;;;;7.57;6.97;;;10.10;99.90;;;;;;4884867;29;20502;-79
2022/11/08 00:48:37;;;;;;;7.90;7.40;;;10.10;99.90;;;;;;4888108;29;20498;-78
2022/11/08 00:51:07;;;;;;;6.83;6.43;;;10.10;99.90;;;;;;4888223;29;20479;-79
2022/11/08 00:53:37;;;;;;;6.60;6.30;;;10.00;99.90;;;;;;4887488;29;20986;-80
2022/11/08 00:56:07;;;;;;;6.93;6.63;;;9.90;99.90;;;;;;4884092;29;20507;-79
2022/11/08 00:58:35;;;;;;;7.33;6.93;;;9.90;1.00;;;;;;4888297;29;20490;-80
2022/11/08 01:01:10;;;;;;;7.83;7.43;;;9.80;1.00;;;;;;4881595;29;20474;-79
2022/11/08 01:03:39;;;;;;;8.70;8.17;;;9.70;1.00;;;;;;4884937;29;20495;-79
2022/11/08 01:06:09;;;;;;;15.10;13.47;;;9.60;1.00;;;;;;4885312;29;20898;-79
2022/11/08 01:08:38;;;;;;;10.30;9.40;;;9.60;1.00;;;;;;4887909;29;20524;-78
2022/11/08 01:11:08;;;;;;;9.00;8.30;;;9.60;67.80;;;;;;4882983;29;20579;-79
2022/11/08 01:13:37;;;;;;;8.20;7.70;;;9.50;99.90;;;;;;4898510;29;20573;-80
2022/11/08 01:16:12;;;;;;;6.50;6.20;;;9.50;63.00;;;;;;4884368;29;20569;-80
2022/11/08 01:18:41;;;;;;;7.80;7.00;;;9.50;1.00;;;;;;4885308;29;20437;-78
2022/11/08 01:21:10;;;;;;;7.33;6.83;;;9.40;1.00;;;;;;4885648;29;20459;-79
2022/11/08 01:23:38;;;;;;;6.97;6.40;;;9.40;1.00;;;;;;4887661;29;20521;-79
2022/11/08 01:26:09;;;;;;;6.70;6.40;;;9.40;1.00;;;;;;4884779;29;20472;-79
2022/11/08 01:28:38;;;;;;;6.23;6.03;;;9.30;21.10;;;;;;4887378;29;20967;-80
2022/11/08 01:31:07;;;;;;;7.03;6.40;;;9.20;8.60;;;;;;4885533;29;20968;-79
2022/11/08 01:33:37;;;;;;;5.13;5.03;;;9.10;1.00;;;;;;4889160;29;20478;-81
2022/11/08 01:36:07;;;;;;;6.13;5.83;;;9.10;1.00;;;;;;4885168;29;20481;-80
2022/11/08 01:38:35;;;;;;;6.07;5.77;;;9.00;43.40;;;;;;4888430;29;20525;-80
2022/11/08 01:41:04;;;;;;;5.87;5.60;;;8.90;1.00;;;;;;4883635;29;20516;-80
2022/11/08 01:43:39;;;;;;;5.87;5.40;;;8.90;1.00;;;;;;4885334;29;20486;-81
2022/11/08 01:46:35;;;;;;;4.90;4.70;;;8.80;99.90;;;;;;4883474;29;20516;-80
2022/11/08 01:49:26;;;;;;;5.23;5.00;;;8.80;99.90;;;;;;4889038;29;20454;-79
2022/11/08 01:52:04;;;;;;;5.47;5.17;;;8.70;63.60;;;;;;4886174;29;20494;-80
2022/11/08 01:54:36;;;;;;;5.20;5.00;;;8.80;36.30;;;;;;4885631;29;20480;-79
2022/11/08 01:57:08;;;;;;;5.83;5.60;;;8.70;1.00;;;;;;4885327;29;21096;-79
2022/11/08 01:59:39;;;;;;;5.57;5.37;;;8.70;57.90;;;;;;4884483;29;20539;-79
2022/11/08 02:02:09;;;;;;;5.60;5.30;;;8.60;99.90;;;;;;4888936;29;20667;-79
2022/11/08 02:04:41;;;;;;;5.60;5.40;;;8.70;99.90;;;;;;4887856;29;20513;-81
2022/11/08 02:07:11;;;;;;;5.40;5.10;;;8.70;99.90;;;;;;4887973;29;20477;-80
2022/11/08 02:09:43;;;;;;;5.93;5.63;;;8.80;99.90;;;;;;4889105;29;20825;-81
2022/11/08 02:12:13;;;;;;;13.73;5.77;;;8.90;99.90;;;;;;4883574;29;20462;-80
2022/11/08 02:14:41;;;;;;;6.10;5.50;;;9.00;99.90;;;;;;4884713;29;20517;-80
2022/11/08 02:17:09;;;;;;;5.57;5.37;;;9.00;99.90;;;;;;4883871;29;20516;-78
2022/11/08 02:19:44;;;;;;;5.40;4.90;;;8.90;1.00;;;;;;4882950;29;20497;-80
2022/11/08 02:22:27;;;;;;;5.07;4.87;;;8.90;92.60;;;;;;4883431;29;20582;-80
2022/11/08 02:24:59;;;;;;;5.23;5.00;;;8.90;2.40;;;;;;4881527;29;20935;-80
2022/11/08 02:27:27;;;;;;;5.80;5.50;;;8.80;99.90;;;;;;4883585;29;20477;-80
2022/11/08 02:29:56;;;;;;;5.10;4.90;;;8.70;85.50;;;;;;4883959;29;20458;-81
2022/11/08 02:32:24;;;;;;;5.03;4.83;;;8.70;1.00;;;;;;4882880;29;20877;-80
2022/11/08 02:34:55;;;;;;;5.40;5.20;;;8.70;1.00;;;;;;4881733;29;20799;-80
2022/11/08 02:37:25;;;;;;;5.77;5.27;;;8.60;1.00;;;;;;4885195;29;20504;-81
2022/11/08 02:39:53;;;;;;;5.43;5.13;;;8.60;1.00;;;;;;4882047;29;20460;-81
2022/11/08 02:42:22;;;;;;;4.90;4.80;;;8.50;1.00;;;;;;4885287;29;20521;-82
2022/11/08 02:44:51;;;;;;;5.83;5.40;;;8.40;1.00;;;;;;4881275;29;20487;-79
2022/11/08 02:47:19;;;;;;;5.43;5.13;;;8.30;96.10;;;;;;4884677;29;20488;-80
2022/11/08 02:49:47;;;;;;;5.27;5.07;;;8.40;99.90;;;;;;4882323;29;20497;-80
2022/11/08 02:52:15;;;;;;;5.30;5.10;;;8.40;1.00;;;;;;4881422;29;21006;-80
2022/11/08 02:54:43;;;;;;;5.20;5.10;;;8.30;1.00;;;;;;4883890;29;20456;-81
2022/11/08 02:57:11;;;;;;;5.90;5.50;;;8.10;99.90;;;;;;4885990;29;20494;-81
2022/11/08 02:59:41;;;;;;;5.20;4.87;;;8.20;99.90;;;;;;4884226;29;20468;-80
2022/11/08 03:02:09;;;;;;;5.40;5.10;;;8.20;1.00;;;;;;4883612;29;20538;-79
2022/11/08 03:04:37;;;;;;;6.00;5.70;;;8.20;1.00;;;;;;4881977;29;20493;-81
2022/11/08 03:07:05;;;;;;;5.47;5.10;;;8.20;1.00;;;;;;4887798;29;20776;-81
2022/11/08 03:09:34;;;;;;;5.00;4.70;;;8.10;1.00;;;;;;4883828;29;20459;-80
2022/11/08 03:12:02;;;;;;;5.30;5.00;;;8.20;20.70;;;;;;4884512;29;20556;-80
2022/11/08 03:14:30;;;;;;;5.00;4.70;;;8.20;1.00;;;;;;4885271;29;21025;-79
2022/11/08 03:16:59;;;;;;;5.07;4.87;;;8.10;1.00;;;;;;4884855;29;20513;-80
2022/11/08 03:19:27;;;;;;;4.70;4.50;;;8.10;1.00;;;;;;4888509;29;20539;-80
2022/11/08 03:21:55;;;;;;;4.63;4.43;;;8.00;99.90;;;;;;4887123;29;20561;-80
2022/11/08 03:24:23;;;;;;;5.00;4.60;;;7.90;1.00;;;;;;4886829;29;20494;-79
2022/11/08 03:26:51;;;;;;;4.70;4.50;;;7.80;1.00;;;;;;4885100;29;20516;-79
2022/11/08 03:29:19;;;;;;;5.87;5.47;;;7.80;1.00;;;;;;4882359;29;20526;-79
2022/11/08 03:31:47;;;;;;;4.60;4.30;;;7.90;1.00;;;;;;4887648;29;20474;-80
2022/11/08 03:34:17;;;;;;;4.70;4.50;;;7.90;7.10;;;;;;4886838;29;20446;-79
2022/11/08 03:36:45;;;;;;;4.73;4.53;;;7.90;1.00;;;;;;4885144;29;20526;-79
2022/11/08 03:39:13;;;;;;;5.30;5.00;;;7.80;1.00;;;;;;4884551;29;20461;-79
2022/11/08 03:41:41;;;;;;;5.50;5.20;;;7.80;1.00;;;;;;4881361;29;20853;-78
2022/11/08 03:44:09;;;;;;;5.50;5.20;;;7.80;1.00;;;;;;4882017;29;20488;-80
2022/11/08 03:46:37;;;;;;;5.00;4.80;;;7.80;1.00;;;;;;4881073;29;20478;-79
2022/11/08 03:49:05;;;;;;;4.67;4.47;;;7.80;5.50;;;;;;4884372;29;20561;-80
2022/11/08 03:51:35;;;;;;;5.30;4.83;;;7.80;1.00;;;;;;4881786;29;20477;-78
2022/11/08 03:54:03;;;;;;;5.17;4.80;;;7.70;1.00;;;;;;4883773;29;20461;-79
2022/11/08 03:56:31;;;;;;;5.53;5.13;;;7.60;5.90;;;;;;4889958;29;20486;-79
2022/11/08 03:58:59;;;;;;;6.70;6.10;;;7.70;1.00;;;;;;4880891;29;20506;-79
2022/11/08 04:01:27;;;;;;;6.60;6.20;;;7.60;97.30;;;;;;4882511;29;20556;-79
2022/11/08 04:03:55;;;;;;;6.90;6.33;;;7.60;1.00;;;;;;4880907;29;20496;-80
2022/11/08 04:06:23;;;;;;;7.30;6.70;;;7.60;1.00;;;;;;4888550;29;20520;-79
2022/11/08 04:08:53;;;;;;;6.90;6.27;;;7.60;1.00;;;;;;4883983;29;20470;-79
2022/11/08 04:16:54;;;;;;;12.33;8.70;;;7.70;1.00;;;;;;4886624;29;20513;-80
2022/11/08 04:22:10;;;;;;;8.47;7.77;;;7.60;99.90;;;;;;4888700;29;20560;-80
2022/11/08 04:24:39;;;;;;;7.97;7.17;;;7.60;1.00;;;;;;4890839;29;20482;-80
2022/11/08 04:27:07;;;;;;;6.90;6.30;;;7.60;1.00;;;;;;4887409;29;20588;-79
2022/11/08 04:29:35;;;;;;;7.50;7.00;;;7.80;58.30;;;;;;4885748;29;20469;-79
2022/11/08 04:32:03;;;;;;;7.23;6.73;;;8.00;1.00;;;;;;4886811;29;20524;-80
2022/11/08 04:34:32;;;;;;;6.83;6.23;;;7.80;1.00;;;;;;4889026;29;20506;-81
2022/11/08 04:37:00;;;;;;;6.40;5.93;;;7.80;2.00;;;;;;4885949;29;20582;-80
2022/11/08 04:39:28;;;;;;;6.90;6.50;;;7.60;99.90;;;;;;4888621;29;20486;-80
2022/11/08 04:41:57;;;;;;;6.77;6.23;;;7.60;1.00;;;;;;4888983;29;20553;-79
2022/11/08 04:44:29;;;;;;;6.40;6.10;;;7.50;1.00;;;;;;4884946;29;20488;-80
2022/11/08 04:46:57;;;;;;;6.00;5.57;;;7.80;99.90;;;;;;4881753;29;20921;-80
2022/11/08 04:49:25;;;;;;;6.10;5.80;;;8.10;99.90;;;;;;4888856;29;20472;-80
2022/11/08 04:51:54;;;;;;;6.70;6.40;;;8.20;1.00;;;;;;4884282;29;20481;-80
2022/11/08 04:54:22;;;;;;;6.33;5.83;;;8.20;34.30;;;;;;4885996;29;20879;-79
2022/11/08 04:56:50;;;;;;;6.27;5.93;;;8.20;99.90;;;;;;4891799;29;20529;-78
2022/11/08 04:59:19;;;;;;;6.10;5.70;;;8.10;99.90;;;;;;4888221;29;20499;-79
2022/11/08 05:01:47;;;;;;;5.87;5.57;;;8.20;47.30;;;;;;4882630;29;20509;-80
2022/11/08 05:04:16;;;;;;;6.10;5.80;;;8.30;1.00;;;;;;4883025;29;20498;-80
2022/11/08 05:06:44;;;;;;;6.20;5.80;;;8.20;10.00;;;;;;4887937;29;20541;-80
2022/11/08 05:09:12;;;;;;;6.80;6.40;;;8.10;1.00;;;;;;4890208;29;20549;-80
2022/11/08 05:11:40;;;;;;;6.63;6.33;;;7.90;1.00;;;;;;4886111;29;20481;-80
2022/11/08 05:14:09;;;;;;;6.10;5.80;;;7.80;1.00;;;;;;4888064;29;20464;-80
2022/11/08 05:16:38;;;;;;;5.73;5.53;;;7.90;99.90;;;;;;4883047;29;20545;-80
2022/11/08 05:19:06;;;;;;;6.37;5.97;;;7.90;99.90;;;;;;4881298;29;20552;-80
2022/11/08 05:24:25;;;;;;;6.40;6.10;;;8.00;29.50;;;;;;4883942;29;21186;-79
2022/11/08 05:26:53;;;;;;;6.37;6.07;;;8.00;1.00;;;;;;4886835;29;21111;-79
2022/11/08 05:29:21;;;;;;;6.00;5.67;;;8.20;99.90;;;;;;4889425;29;20546;-78
2022/11/08 05:31:51;;;;;;;5.50;5.20;;;8.10;1.00;;;;;;4885722;29;20562;-80
2022/11/08 05:34:19;;;;;;;6.30;5.90;;;8.10;99.90;;;;;;4888889;29;20573;-79
2022/11/08 05:36:47;;;;;;;5.63;5.33;;;8.20;99.90;;;;;;4884311;29;20512;-80
2022/11/08 05:39:15;;;;;;;5.80;5.60;;;8.40;99.90;;;;;;4889411;29;20456;-81
2022/11/08 05:41:43;;;;;;;6.40;6.10;;;8.50;1.00;;;;;;4894160;29;20213;-80
2022/11/08 05:44:11;;;;;;;5.80;5.60;;;8.60;99.90;;;;;;4884141;29;20474;-81
2022/11/08 05:46:39;;;;;;;6.57;6.07;;;8.70;1.00;;;;;;4878958;29;20474;-80
2022/11/08 05:49:09;;;;;;;6.33;5.93;;;8.60;1.00;;;;;;4883594;29;20491;-81
2022/11/08 05:51:37;;;;;;;6.57;6.27;;;8.70;1.00;;;;;;4884990;29;20596;-81
2022/11/08 05:54:06;;;;;;;6.37;6.07;;;8.90;99.90;;;;;;4885372;29;20453;-82
2022/11/08 05:56:35;;;;;;;5.97;5.60;;;8.90;99.90;;;;;;4885090;29;20471;-80
2022/11/08 05:59:03;;;;;;;5.97;5.77;;;8.80;99.90;;;;;;4886972;29;20464;-79
2022/11/08 06:01:31;;;;;;;6.30;5.90;;;8.70;99.90;;;;;;4885046;29;20572;-80
2022/11/08 06:04:00;;;;;;;5.97;5.77;;;8.70;1.00;;;;;;4884641;29;20480;-80
2022/11/08 06:06:29;;;;;;;6.07;5.77;;;8.50;99.90;;;;;;4879260;29;20558;-81
2022/11/08 06:08:57;;;;;;;6.27;6.07;;;8.40;1.00;;;;;;4883959;29;20549;-80
2022/11/08 06:11:27;;;;;;;6.10;5.70;;;8.50;36.60;;;;;;4882998;29;21005;-80
2022/11/08 06:13:56;;;;;;;6.50;6.20;;;8.50;1.00;;;;;;4886898;29;21080;-80
2022/11/08 06:16:25;;;;;;;6.03;5.83;;;8.60;1.00;;;;;;4887200;29;20908;-81
2022/11/08 06:18:53;;;;;;;6.13;5.93;;;8.70;1.00;;;;;;4885931;29;20468;-82
2022/11/08 06:21:22;;;;;;;6.63;6.23;;;8.80;99.90;;;;;;4884487;29;20465;-81
2022/11/08 06:23:54;;;;;;;6.50;6.20;;;8.70;21.70;;;;;;4888447;29;20473;-81
2022/11/08 06:26:23;;;;;;;6.33;6.13;;;8.70;99.90;;;;;;4892600;29;20829;-81
2022/11/08 06:28:51;;;;;;;6.63;6.30;;;8.90;99.90;;;;;;4887544;29;20472;-82
2022/11/08 06:31:19;;;;;;;6.43;6.23;;;9.00;2.90;;;;;;4885772;29;21078;-83
2022/11/08 06:33:47;;;;;;;6.73;6.53;;;9.00;1.00;;;;;;4888785;29;20570;-82
2022/11/08 06:36:15;;;;;;;6.60;6.30;;;8.90;1.00;;;;;;4879233;29;20526;-82
2022/11/08 06:38:43;;;;;;;6.90;6.40;;;8.90;1.00;;;;;;4884331;29;20945;-82
2022/11/08 06:41:18;;;;;;;6.40;6.17;;;8.90;1.00;;;;;;4886056;29;20479;-82
2022/11/08 06:43:47;;;;;;;6.50;6.10;;;9.00;1.00;;;;;;4886994;29;20468;-79
2022/11/08 06:46:17;;;;;;;6.57;6.27;;;9.00;1.00;;;;;;4884573;29;20991;-83
2022/11/08 06:48:45;;;;;;;6.97;6.43;;;8.90;1.00;;;;;;4883149;29;21082;-80
2022/11/08 06:51:13;;;;;;;6.03;5.73;;;8.90;6.80;;;;;;4884472;29;20961;-80
2022/11/08 06:53:42;;;;;;;6.73;6.43;;;9.00;1.00;;;;;;4885310;29;20459;-81
2022/11/08 06:56:11;;;;;;;6.77;6.37;;;8.90;1.00;;;;;;4889428;29;20499;-81
2022/11/08 06:58:40;;;;;;;6.47;6.27;;;9.10;1.00;;;;;;4882348;29;20601;-79
2022/11/08 07:01:10;;;;;;;6.90;6.60;;;9.10;1.00;;;;;;4878386;29;20456;-82
2022/11/08 07:03:38;;;;;;;6.17;5.97;;;9.20;1.00;;;;;;4882902;29;20488;-80
2022/11/08 07:06:07;;;;;;;7.80;7.00;;;9.30;1.00;;;;;;4882575;29;20489;-82
2022/11/08 07:08:36;;;;;;;6.30;5.90;;;9.30;1.00;;;;;;4876316;29;20469;-80
2022/11/08 07:11:04;;;;;;;6.57;6.37;;;9.30;1.00;;;;;;4881084;29;20457;-81
2022/11/08 07:13:33;;;;;;;7.50;7.10;;;9.30;1.00;;;;;;4881953;29;20474;-81
2022/11/08 07:16:03;;;;;;;7.23;6.80;;;9.40;99.90;;;;;;4882440;29;20481;-82
2022/11/08 07:18:31;;;;;;;7.00;6.70;;;9.50;99.90;;;;;;4884081;29;21403;-81
2022/11/08 07:21:01;;;;;;;6.87;6.57;;;9.60;99.90;;;;;;4880363;29;21193;-82
2022/11/08 07:23:29;;;;;;;7.27;6.77;;;9.70;99.90;;;;;;4883773;29;20816;-81
2022/11/08 07:26:01;;;;;;;6.60;6.30;;;9.70;99.90;;;;;;4884627;29;20605;-82
2022/11/08 07:28:29;;;;;;;6.83;6.43;;;9.80;99.90;;;;;;4886710;29;21015;-82
2022/11/08 07:30:59;;;;;;;6.83;6.43;;;9.90;99.90;;;;;;4891088;29;20825;-83
2022/11/08 07:33:29;;;;;;;6.47;6.17;;;9.90;99.90;;;;;;4884477;29;20525;-80
2022/11/08 07:35:58;;;;;;;6.50;6.20;;;9.90;99.90;;;;;;4892080;29;21024;-82
2022/11/08 07:38:27;;;;;;;6.10;5.80;;;9.90;99.90;;;;;;4888589;29;20551;-82
2022/11/08 07:40:57;;;;;;;6.53;6.30;;;9.90;99.90;;;;;;4882996;29;21906;-82
2022/11/08 07:43:27;;;;;;;6.30;6.10;;;9.70;99.90;;;;;;4885971;29;20594;-83
2022/11/08 07:45:58;;;;;;;5.67;5.47;;;9.60;99.90;;;;;;4887800;29;21069;-83
2022/11/08 07:48:28;;;;;;;6.23;6.03;;;9.80;99.90;;;;;;4884687;29;20454;-83
2022/11/08 07:50:57;;;;;;;6.37;6.10;;;10.20;99.90;;;;;;4885608;29;20984;-83
2022/11/08 07:53:25;;;;;;;6.07;5.97;;;10.50;99.90;;;;;;4888233;29;20470;-83
2022/11/08 07:55:54;;;;;;;6.97;6.50;;;10.80;99.90;;;;;;4893199;29;20474;-81
2022/11/08 07:58:22;;;;;;;7.43;6.93;;;11.20;95.20;;;;;;4890849;29;20473;-83
2022/11/08 08:00:50;;;;;;;7.13;6.83;;;11.40;99.90;;;;;;4889526;29;20571;-83
2022/11/08 08:03:18;;;;;;;7.87;7.57;;;11.60;99.30;;;;;;4887828;29;20466;-83
2022/11/08 08:05:52;;;;;;;7.97;7.67;;;11.90;1.00;;;;;;4903101;29;20475;-83
2022/11/08 08:08:29;;;;;;;8.97;8.20;;;12.00;1.00;;;;;;4888685;29;21046;-82
2022/11/08 08:10:59;;;;;;;7.40;7.00;;;12.10;1.00;;;;;;4890644;29;21138;-83
2022/11/08 08:13:27;;;;;;;7.00;6.60;;;12.40;1.00;;;;;;4887846;29;20469;-82
2022/11/08 08:15:58;;;;;;;6.50;6.13;;;12.60;1.00;;;;;;4887716;29;20471;-83
2022/11/08 08:18:27;;;;;;;6.87;6.57;;;12.80;1.00;;;;;;4891596;29;20521;-82
2022/11/08 08:20:55;;;;;;;6.47;6.23;;;13.10;99.90;;;;;;4893342;29;20541;-81
2022/11/08 08:23:23;;;;;;;6.40;6.00;;;13.40;99.90;;;;;;4892251;29;20460;-83
2022/11/08 08:25:53;;;;;;;6.87;6.30;;;13.50;99.90;;;;;;4890792;29;20549;-83
2022/11/08 08:28:21;;;;;;;7.00;6.70;;;13.80;99.90;;;;;;4887925;29;20466;-81
2022/11/08 08:30:49;;;;;;;6.27;6.07;;;14.00;99.90;;;;;;4889864;29;20453;-80
2022/11/08 08:33:18;;;;;;;6.60;6.37;;;14.00;99.90;;;;;;4891179;29;20539;-81
2022/11/08 08:35:56;;;;;;;5.93;5.73;;;13.90;99.90;;;;;;4890371;29;20573;-82
2022/11/08 08:38:25;;;;;;;6.87;6.40;;;13.90;99.90;;;;;;4892034;29;20467;-81
2022/11/08 08:40:54;;;;;;;5.43;5.27;;;13.80;99.90;;;;;;4890756;29;20570;-80
2022/11/08 08:43:22;;;;;;;6.13;5.80;;;13.80;99.90;;;;;;4903906;29;20463;-80
2022/11/08 08:45:51;;;;;;;6.40;6.10;;;14.00;99.90;;;;;;4885484;29;21087;-81
2022/11/08 08:48:19;;;;;;;7.03;6.63;;;14.20;99.90;;;;;;4888939;29;20468;-81
2022/11/08 08:50:47;;;;;;;5.57;5.37;;;14.00;99.90;;;;;;4884311;29;20924;-82
2022/11/08 08:53:16;;;;;;;5.60;5.10;;;13.80;99.90;;;;;;4884594;29;20472;-80
2022/11/08 08:55:44;;;;;;;5.50;5.20;;;13.80;99.90;;;;;;4885054;29;20464;-81
2022/11/08 08:58:14;;;;;;;5.47;5.17;;;13.80;99.90;;;;;;4883953;29;20671;-81
2022/11/08 09:00:42;;;;;;;5.23;5.03;;;13.60;99.90;;;;;;4884020;29;20490;-81
2022/11/08 09:03:31;;;;;;;4.80;4.70;;;13.50;99.90;;;;;;4885546;29;20459;-81
2022/11/08 09:05:59;;;;;;;5.03;4.83;;;13.40;99.90;;;;;;4881292;29;21229;-81
2022/11/08 09:08:29;;;;;;;5.10;4.80;;;13.50;99.90;;;;;;4886983;29;20469;-81
2022/11/08 09:10:58;;;;;;;5.00;4.80;;;13.50;99.90;;;;;;4885899;29;20464;-81
2022/11/08 09:13:29;;;;;;;5.20;5.00;;;13.60;99.90;;;;;;4883320;29;20519;-81
2022/11/08 09:15:58;;;;;;;5.10;4.90;;;13.90;99.90;;;;;;4886189;29;20476;-81
2022/11/08 09:18:27;;;;;;;5.80;5.40;;;14.50;99.90;;;;;;4885469;29;20462;-79
2022/11/08 09:20:57;;;;;;;5.03;4.83;;;15.00;99.90;;;;;;4882350;29;20462;-81
2022/11/08 09:23:25;;;;;;;4.40;4.30;;;15.30;99.90;;;;;;4885624;29;20474;-81
2022/11/08 09:25:57;;;;;;;4.80;4.60;;;15.20;99.90;;;;;;4885286;29;20493;-81
2022/11/08 09:28:26;;;;;;;4.80;4.60;;;15.50;99.90;;;;;;4883834;29;20454;-82
2022/11/08 09:31:05;;;;;;;5.23;5.03;;;15.70;99.90;;;;;;4885051;29;20462;-81
2022/11/08 09:33:34;;;;;;;4.70;4.53;;;16.00;99.90;;;;;;4889123;29;20544;-84
2022/11/08 09:36:05;;;;;;;4.40;4.20;;;15.70;99.90;;;;;;4885064;29;20510;-85
2022/11/08 09:38:34;;;;;;;4.40;4.20;;;15.40;99.90;;;;;;4886225;29;20492;-85
2022/11/08 09:41:20;;;;;;;5.00;4.63;;;15.40;99.90;;;;;;4887607;29;20954;-85
2022/11/08 09:44:11;;;;;;;4.23;4.03;;;15.40;99.90;;;;;;4894368;29;20469;-84
2022/11/08 09:46:48;;;;;;;4.60;4.30;;;15.50;99.90;;;;;;4888615;29;20482;-84
2022/11/08 09:49:21;;;;;;;4.70;4.50;;;15.80;99.90;;;;;;4886263;29;20528;-84
2022/11/08 09:51:49;;;;;;;4.40;4.20;;;16.30;99.90;;;;;;4888019;29;20450;-84
2022/11/08 09:54:23;;;;;;;5.13;4.83;;;16.30;99.90;;;;;;4888848;29;22131;-83
2022/11/08 09:56:54;;;;;;;4.43;4.23;;;15.60;99.90;;;;;;4889523;29;20473;-85
2022/11/08 09:59:42;;;;;;;4.13;4.03;;;15.00;99.90;;;;;;4888808;29;20544;-85
2022/11/08 10:02:18;;;;;;;4.10;3.90;;;14.70;99.90;;;;;;4891634;29;20458;-85
2022/11/08 10:04:52;;;;;;;4.63;4.13;;;14.50;99.90;;;;;;4887579;29;20471;-86
2022/11/08 10:07:28;;;;;;;4.20;3.90;;;14.40;99.90;;;;;;4886974;29;20472;-85
2022/11/08 10:10:23;;;;;;;3.70;3.60;;;14.20;99.90;;;;;;4888671;29;20460;-84
2022/11/08 10:13:00;;;;;;;4.33;4.07;;;14.30;99.90;;;;;;4883967;29;20464;-84
2022/11/08 10:15:37;;;;;;;4.20;4.10;;;14.30;99.90;;;;;;4894702;29;20460;-85
2022/11/08 10:18:20;;;;;;;3.83;3.70;;;14.30;99.90;;;;;;4890213;29;20456;-85
2022/11/08 10:21:01;;;;;;;4.33;4.23;;;14.30;99.90;;;;;;4888235;29;20466;-85
2022/11/08 10:23:42;;;;;;;3.80;3.70;;;14.30;99.90;;;;;;4889169;29;20469;-86
2022/11/08 10:26:15;;;;;;;3.63;3.50;;;14.40;99.90;;;;;;4883414;29;20496;-85
2022/11/08 10:28:49;;;;;;;3.93;3.73;;;14.50;99.90;;;;;;4885255;29;20521;-84
2022/11/08 10:31:19;;;;;;;4.13;3.93;;;14.50;99.90;;;;;;4881816;29;20546;-84
2022/11/08 10:33:52;;;;;;;3.63;3.50;;;14.90;99.90;;;;;;4880412;29;20877;-84
2022/11/08 10:36:24;;;;;;;3.70;3.50;;;15.20;99.90;;;;;;4887855;29;21035;-85
2022/11/08 10:39:01;;;;;;;3.60;3.50;;;15.20;99.90;;;;;;4884827;29;20935;-85
2022/11/08 10:41:38;;;;;;;4.07;3.87;;;15.80;99.90;;;;;;4888511;29;20470;-84
2022/11/08 10:44:11;;;;;;;3.67;3.50;;;16.60;99.90;;;;;;4886521;29;21283;-85
2022/11/08 10:46:42;;;;;;;3.43;3.23;;;17.10;99.90;;;;;;4884389;29;20494;-85
2022/11/08 10:49:21;;;;;;;3.70;3.60;;;17.30;99.90;;;;;;4886481;29;20457;-84
2022/11/08 10:51:52;;;;;;;4.07;3.87;;;17.30;99.90;;;;;;4887721;29;20938;-85
2022/11/08 10:54:40;;;;;;;4.80;4.60;;;17.00;99.90;;;;;;4887115;29;20448;-85
2022/11/08 10:57:09;;;;;;;3.90;3.70;;;16.80;99.90;;;;;;4885678;29;20494;-84
2022/11/08 10:59:37;;;;;;;4.30;4.20;;;17.00;99.90;;;;;;4891278;29;20445;-85
2022/11/08 11:02:24;;;;;;;3.80;3.70;;;16.90;99.90;;;;;;4885205;29;20524;-84
2022/11/08 11:05:21;;;;;;;4.27;3.97;;;16.50;99.90;;;;;;4887702;29;20825;-83
2022/11/08 11:08:05;;;;;;;4.47;4.27;;;16.70;99.90;;;;;;4886235;29;20854;-84
2022/11/08 11:10:36;;;;;;;3.90;3.80;;;16.50;99.90;;;;;;4886009;29;20459;-85
2022/11/08 11:13:06;;;;;;;4.23;4.10;;;16.20;99.90;;;;;;4883467;29;20553;-84
2022/11/08 11:15:37;;;;;;;3.67;3.57;;;16.20;99.90;;;;;;4887591;29;20526;-82
2022/11/08 11:18:17;;;;;;;4.43;4.20;;;16.20;99.90;;;;;;4885171;29;20463;-84
2022/11/08 11:21:00;;;;;;;4.37;4.07;;;16.50;99.90;;;;;;4887668;29;20474;-84
2022/11/08 11:23:38;;;;;;;4.33;4.23;;;16.60;99.90;;;;;;4886188;29;20465;-84
2022/11/08 11:26:07;;;;;;;4.07;3.93;;;16.70;99.90;;;;;;4886624;29;20498;-80
2022/11/08 11:28:36;;;;;;;4.40;4.10;;;16.80;99.90;;;;;;4878489;29;21007;-81
2022/11/08 11:31:16;;;;;;;3.90;3.80;;;17.00;99.90;;;;;;4880803;29;20526;-80
2022/11/08 11:33:46;;;;;;;4.10;3.90;;;17.10;99.90;;;;;;4880962;29;20508;-81
2022/11/08 11:36:20;;;;;;;4.10;3.90;;;17.20;99.90;;;;;;4878041;29;20544;-80
2022/11/08 11:38:53;;;;;;;4.17;4.07;;;17.20;99.90;;;;;;4880243;29;20459;-80
2022/11/08 11:41:28;;;;;;;4.00;3.90;;;17.10;99.90;;;;;;4880585;29;20670;-80
2022/11/08 11:44:05;;;;;;;3.67;3.57;;;17.10;99.90;;;;;;4883077;29;20502;-81
2022/11/08 11:46:43;;;;;;;3.67;3.57;;;17.00;99.90;;;;;;4878776;29;20491;-81
2022/11/08 11:49:16;;;;;;;3.90;3.70;;;16.90;99.90;;;;;;4878699;29;20496;-81
2022/11/08 11:51:46;;;;;;;5.73;3.40;;;17.00;99.90;;;;;;4882161;29;20473;-80
2022/11/08 11:54:16;;;;;;;3.40;3.30;;;17.10;99.90;;;;;;4881612;29;20945;-84
2022/11/08 11:56:54;;;;;;;3.40;3.30;;;17.30;99.90;;;;;;4881965;29;20537;-84
2022/11/08 11:59:46;;;;;;;3.80;3.70;;;17.40;99.90;;;;;;4881804;29;20556;-83
2022/11/08 12:02:49;;;;;;;3.30;3.20;;;17.40;99.90;;;;;;4882915;29;20466;-83
2022/11/08 12:05:35;;;;;;;3.50;3.30;;;17.50;99.90;;;;;;4878064;29;20463;-84
2022/11/08 12:08:16;;;;;;;2.83;2.73;;;17.60;99.90;;;;;;4881290;29;20491;-83
2022/11/08 12:10:53;;;;;;;2.93;2.73;;;17.60;99.90;;;;;;4879133;29;21147;-84
2022/11/08 12:13:29;;;;;;;3.00;2.80;;;17.60;99.90;;;;;;4880352;29;20464;-83
2022/11/08 12:16:07;;;;;;;2.90;2.80;;;17.70;99.90;;;;;;4881366;29;20476;-83
2022/11/08 12:18:44;;;;;;;3.07;2.87;;;17.60;99.90;;;;;;4883768;29;20456;-82
2022/11/08 12:21:15;;;;;;;2.90;2.80;;;17.70;99.90;;;;;;4883675;29;21236;-83
2022/11/08 12:24:10;;;;;;;3.10;2.90;;;17.80;99.90;;;;;;4878141;29;22875;-82
2022/11/08 12:26:51;;;;;;;2.70;2.60;;;17.90;99.90;;;;;;4877049;29;20516;-84
2022/11/08 12:29:25;;;;;;;3.00;2.90;;;18.00;99.90;;;;;;4880348;29;20547;-82
2022/11/08 12:32:09;;;;;;;3.50;3.30;;;18.00;99.90;;;;;;4878164;29;21351;-83
2022/11/08 12:34:51;;;;;;;5.43;3.40;;;17.90;99.90;;;;;;4885441;29;20935;-83
2022/11/08 12:37:33;;;;;;;3.23;3.03;;;17.90;99.90;;;;;;4886605;29;20487;-83
2022/11/08 12:40:13;;;;;;;3.60;3.40;;;17.80;99.90;;;;;;4890078;29;20472;-83
2022/11/08 12:42:52;;;;;;;3.20;2.90;;;17.90;99.90;;;;;;4889503;29;20471;-83
2022/11/08 12:45:40;;;;;;;2.80;2.70;;;17.80;99.90;;;;;;4885367;29;20572;-81
2022/11/08 12:48:18;;;;;;;3.27;3.13;;;17.80;99.90;;;;;;4877921;29;20602;-82
2022/11/08 12:50:53;;;;;;;3.53;3.40;;;17.80;99.90;;;;;;4881800;29;20473;-81
2022/11/08 12:53:39;;;;;;;2.57;2.47;;;17.90;99.90;;;;;;4884325;29;20493;-81
2022/11/08 12:56:14;;;;;;;3.30;3.10;;;17.90;99.90;;;;;;4877368;29;20538;-80
2022/11/08 12:58:45;;;;;;;3.10;3.00;;;17.90;99.90;;;;;;4876719;29;20475;-82
2022/11/08 13:01:15;;;;;;;3.30;3.10;;;17.90;99.90;;;;;;4880888;29;20540;-80
2022/11/08 13:04:17;;;;;;;3.53;3.33;;;18.00;99.90;;;;;;4876693;29;20908;-81
2022/11/08 13:06:54;;;;;;;2.97;2.87;;;18.00;99.90;;;;;;4878865;29;20536;-81
2022/11/08 13:09:33;;;;;;;3.53;3.27;;;17.90;99.90;;;;;;4877943;29;20533;-81
2022/11/08 13:12:13;;;;;;;2.87;2.77;;;17.80;99.90;;;;;;4875209;29;21019;-82
2022/11/08 13:14:42;;;;;;;3.97;3.07;;;17.80;99.90;;;;;;4879942;29;20565;-80
2022/11/08 13:17:21;;;;;;;3.40;3.30;;;17.70;99.90;;;;;;4882501;29;20500;-81
2022/11/08 13:19:58;;;;;;;3.17;2.97;;;17.80;99.90;;;;;;4874862;29;20549;-80
2022/11/08 13:22:58;;;;;;;3.47;3.27;;;17.70;99.90;;;;;;4879222;29;20537;-81
2022/11/08 13:25:43;;;;;;;3.37;3.07;;;17.70;99.90;;;;;;4886423;29;21145;-84
2022/11/08 13:28:44;;;;;;;2.40;2.30;;;17.60;99.90;;;;;;4881610;29;21539;-83
2022/11/08 13:31:19;;;;;;;3.10;2.90;;;17.50;99.90;;;;;;4881842;29;20470;-84
2022/11/08 13:34:13;;;;;;;3.37;2.80;;;17.40;99.90;;;;;;4883345;29;20554;-84
2022/11/08 13:36:52;;;;;;;2.30;2.20;;;17.20;99.90;;;;;;4824774;29;20556;-83
2022/11/08 13:39:47;;;;;;;2.20;2.10;;;17.10;99.90;;;;;;4884162;29;20487;-84